createdAt,value
2023-05-01T00:08:08.749Z,12.00
2023-05-01T00:10:39.960Z,10.47
2023-05-01T00:13:16.555Z,11.60
2023-05-01T00:15:23.934Z,10.63
2023-05-01T00:17:38.685Z,11.77
2023-05-01T00:20:24.387Z,11.70
2023-05-01T00:25:54.758Z,11.27
2023-05-01T00:37:35.333Z,11.27
2023-05-01T00:44:40.500Z,11.33
2023-05-01T00:47:12.497Z,11.13
2023-05-01T00:50:27.442Z,11.93
2023-05-01T00:53:22.374Z,12.10
2023-05-01T00:59:08.359Z,11.83
2023-05-01T01:01:47.711Z,11.53
2023-05-01T01:04:14.245Z,11.37
2023-05-01T01:06:41.308Z,11.10
2023-05-01T01:09:14.993Z,11.27
2023-05-01T01:11:58.140Z,10.77
2023-05-01T01:17:35.325Z,10.20
2023-05-01T01:20:04.522Z,10.97
2023-05-01T01:22:09.740Z,10.43
2023-05-01T01:24:39.696Z,10.77
2023-05-01T01:26:53.397Z,10.37
2023-05-01T01:29:06.559Z,10.87
2023-05-01T01:31:20.504Z,10.33
2023-05-01T01:33:34.903Z,11.50
2023-05-01T01:35:38.241Z,10.40
2023-05-01T01:37:43.868Z,10.80
2023-05-01T01:39:49.989Z,10.90
2023-05-01T01:41:54.763Z,10.33
2023-05-01T01:44:08.940Z,10.97
2023-05-01T01:46:10.315Z,11.17
2023-05-01T01:48:08.644Z,11.30
2023-05-01T01:50:10.351Z,11.20
2023-05-01T01:52:13.294Z,10.97
2023-05-01T01:54:09.589Z,11.10
2023-05-01T01:56:06.752Z,10.80
2023-05-01T01:58:15.231Z,10.90
2023-05-01T02:00:14.101Z,11.37
2023-05-01T02:02:12.099Z,10.80
2023-05-01T02:04:11.002Z,10.97
2023-05-01T02:06:08.257Z,10.60
2023-05-01T02:08:17.123Z,10.87
2023-05-01T02:10:18.471Z,10.13
2023-05-01T02:12:28.093Z,9.50
2023-05-01T02:14:41.136Z,10.40
2023-05-01T02:16:54.952Z,9.30
2023-05-01T02:19:03.178Z,8.87
2023-05-01T02:21:20.068Z,7.97
2023-05-01T02:23:51.390Z,7.60
2023-05-01T02:33:15.124Z,6.43
2023-05-01T02:39:43.977Z,7.00
2023-05-01T02:41:59.977Z,7.03
2023-05-01T02:44:07.986Z,6.60
2023-05-01T02:46:15.009Z,6.10
2023-05-01T02:48:31.841Z,6.53
2023-05-01T02:58:25.306Z,5.67
2023-05-01T03:00:48.570Z,5.60
2023-05-01T03:07:32.612Z,6.27
2023-05-01T03:09:58.574Z,5.30
2023-05-01T03:19:10.168Z,5.30
2023-05-01T03:22:02.409Z,5.67
2023-05-01T03:25:04.796Z,5.87
2023-05-01T03:27:46.923Z,5.67
2023-05-01T03:30:45.442Z,5.50
2023-05-01T03:43:11.572Z,5.27
2023-05-01T03:48:16.666Z,5.77
2023-05-01T03:50:46.379Z,5.73
2023-05-01T03:53:00.801Z,5.53
2023-05-01T03:55:25.597Z,6.13
2023-05-01T03:58:03.377Z,6.00
2023-05-01T04:00:23.458Z,5.13
2023-05-01T04:02:49.012Z,5.07
2023-05-01T04:05:05.873Z,5.27
2023-05-01T04:09:59.808Z,5.13
2023-05-01T04:12:33.603Z,6.10
2023-05-01T04:14:49.003Z,4.90
2023-05-01T04:17:13.019Z,5.70
2023-05-01T04:19:19.500Z,6.27
2023-05-01T04:21:36.357Z,5.30
2023-05-01T04:23:46.060Z,6.17
2023-05-01T04:25:55.775Z,5.40
2023-05-01T04:28:45.664Z,5.37
2023-05-01T04:31:37.498Z,5.33
2023-05-01T04:37:26.282Z,5.17
2023-05-01T04:39:40.733Z,4.90
2023-05-01T04:45:07.790Z,4.90
2023-05-01T04:47:10.312Z,4.90
2023-05-01T04:49:05.548Z,4.43
2023-05-01T04:51:12.549Z,4.70
2023-05-01T04:53:10.566Z,4.80
2023-05-01T04:55:06.251Z,5.10
2023-05-01T04:57:01.488Z,4.80
2023-05-01T04:58:58.357Z,5.03
2023-05-01T05:05:23.185Z,4.57
2023-05-01T05:11:21.051Z,4.70
2023-05-01T05:13:57.032Z,4.90
2023-05-01T05:17:16.457Z,5.00
2023-05-01T05:23:03.072Z,4.60
2023-05-01T05:25:26.131Z,4.53
2023-05-01T05:28:07.517Z,4.80
2023-05-01T05:34:30.288Z,4.73
2023-05-01T05:39:38.854Z,4.57
2023-05-01T05:41:42.851Z,4.77
2023-05-01T05:47:08.540Z,5.57
2023-05-01T05:49:07.025Z,5.10
2023-05-01T05:51:05.068Z,4.97
2023-05-01T05:53:25.995Z,4.43
2023-05-01T05:55:36.079Z,6.40
2023-05-01T06:01:49.009Z,4.57
2023-05-01T06:03:47.152Z,5.47
2023-05-01T06:05:42.568Z,4.13
2023-05-01T06:07:45.448Z,4.60
2023-05-01T06:09:59.674Z,4.57
2023-05-01T06:12:15.273Z,4.73
2023-05-01T06:14:33.836Z,5.10
2023-05-01T06:16:29.742Z,4.87
2023-05-01T06:18:25.037Z,4.57
2023-05-01T06:20:24.141Z,4.83
2023-05-01T06:22:21.471Z,4.47
2023-05-01T06:24:19.452Z,4.93
2023-05-01T06:26:15.365Z,4.67
2023-05-01T06:28:12.256Z,4.27
2023-05-01T06:30:11.546Z,4.63
2023-05-01T06:32:08.698Z,4.17
2023-05-01T06:34:19.933Z,4.30
2023-05-01T06:40:24.515Z,22.03
2023-05-01T06:43:02.290Z,6.50
2023-05-01T06:45:10.070Z,4.40
2023-05-01T06:47:12.565Z,4.83
2023-05-01T06:49:14.675Z,4.33
2023-05-01T06:55:45.859Z,4.53
2023-05-01T06:58:28.466Z,4.47
2023-05-01T07:00:46.684Z,4.37
2023-05-01T07:07:57.922Z,4.13
2023-05-01T07:11:14.230Z,4.33
2023-05-01T07:13:32.070Z,4.27
2023-05-01T07:15:54.697Z,4.00
2023-05-01T07:18:28.364Z,4.90
2023-05-01T07:20:45.231Z,4.00
2023-05-01T07:23:43.416Z,4.13
2023-05-01T07:26:23.230Z,4.77
2023-05-01T07:28:23.249Z,4.70
2023-05-01T07:30:34.931Z,4.43
2023-05-01T07:32:33.880Z,4.20
2023-05-01T07:34:29.061Z,4.23
2023-05-01T07:36:24.740Z,4.00
2023-05-01T07:38:29.552Z,4.77
2023-05-01T07:40:37.053Z,4.30
2023-05-01T07:42:35.441Z,3.50
2023-05-01T07:44:30.940Z,4.03
2023-05-01T07:46:26.213Z,4.23
2023-05-01T07:48:22.013Z,4.60
2023-05-01T07:50:17.381Z,4.27
2023-05-01T07:52:14.327Z,3.77
2023-05-01T07:54:10.706Z,3.93
2023-05-01T07:56:10.355Z,3.77
2023-05-01T07:58:08.079Z,3.90
2023-05-01T08:00:04.966Z,3.60
2023-05-01T08:04:58.383Z,3.87
2023-05-01T08:10:36.793Z,3.60
2023-05-01T08:16:22.163Z,3.97
2023-05-01T08:18:27.119Z,3.60
2023-05-01T08:20:37.657Z,4.20
2023-05-01T08:23:32.850Z,3.90
2023-05-01T08:25:51.688Z,3.30
2023-05-01T08:27:53.004Z,3.53
2023-05-01T08:32:47.579Z,3.87
2023-05-01T08:51:21.305Z,3.55
2023-05-01T08:53:29.270Z,3.53
2023-05-01T08:55:58.765Z,3.20
2023-05-01T09:14:46.413Z,3.28
2023-05-01T09:17:22.342Z,3.08
2023-05-01T09:29:56.303Z,2.97
2023-05-01T10:06:57.167Z,3.60
2023-05-01T10:10:15.408Z,4.13
2023-05-01T10:12:32.374Z,3.45
2023-05-01T10:15:24.895Z,3.72
2023-05-01T10:18:02.151Z,3.80
2023-05-01T10:20:25.398Z,3.80
2023-05-01T10:22:28.954Z,4.00
2023-05-01T10:24:53.036Z,4.18
2023-05-01T10:30:51.545Z,3.97
2023-05-01T10:37:02.437Z,3.88
2023-05-01T10:40:26.318Z,3.22
2023-05-01T10:44:05.002Z,3.38
2023-05-01T10:46:32.185Z,3.20
2023-05-01T10:56:48.690Z,7.78
2023-05-01T10:59:51.747Z,3.88
2023-05-01T11:38:41.501Z,3.67
2023-05-01T11:47:03.861Z,4.28
2023-05-01T11:49:21.585Z,4.30
2023-05-01T11:51:25.092Z,5.28
2023-05-01T11:53:21.051Z,4.20
2023-05-01T11:55:16.482Z,3.72
2023-05-01T11:57:11.902Z,4.25
2023-05-01T11:59:15.791Z,4.13
2023-05-01T12:01:12.968Z,4.18
2023-05-01T12:03:11.137Z,4.13
2023-05-01T12:05:23.512Z,3.90
2023-05-01T12:07:25.114Z,3.85
2023-05-01T12:09:23.601Z,4.00
2023-05-01T12:11:25.749Z,4.32
2023-05-01T12:13:29.162Z,4.18
2023-05-01T12:15:48.942Z,4.10
2023-05-01T12:17:47.277Z,4.00
2023-05-01T12:19:52.283Z,11.90
2023-05-01T12:21:50.527Z,3.75
2023-05-01T12:23:47.288Z,4.00
2023-05-01T12:25:52.698Z,3.97
2023-05-01T12:27:50.733Z,4.07
2023-05-01T12:29:48.884Z,3.92
2023-05-01T12:31:50.375Z,3.80
2023-05-01T12:33:57.259Z,4.03
2023-05-01T12:35:53.711Z,3.83
2023-05-01T12:37:52.150Z,3.75
2023-05-01T12:40:02.510Z,3.72
2023-05-01T12:42:20.259Z,4.00
2023-05-01T12:44:39.706Z,3.90
2023-05-01T12:46:40.062Z,4.38
2023-05-01T12:48:35.490Z,5.28
2023-05-01T12:50:42.116Z,3.60
2023-05-01T12:52:59.677Z,3.65
2023-05-01T12:55:17.724Z,3.65
2023-05-01T12:57:15.497Z,4.07
2023-05-01T12:59:23.454Z,4.25
2023-05-01T13:01:28.511Z,4.40
2023-05-01T13:03:27.728Z,3.97
2023-05-01T13:05:23.081Z,4.05
2023-05-01T13:07:19.816Z,3.58
2023-05-01T13:09:17.012Z,4.13
2023-05-01T13:11:16.839Z,3.85
2023-05-01T13:13:12.194Z,3.80
2023-05-01T13:15:09.267Z,3.92
2023-05-01T13:17:05.315Z,4.18
2023-05-01T13:19:01.941Z,3.85
2023-05-01T13:20:57.015Z,4.03
2023-05-01T13:22:52.759Z,4.03
2023-05-01T13:24:47.944Z,4.55
2023-05-01T13:26:47.433Z,4.97
2023-05-01T13:28:48.497Z,3.80
2023-05-01T13:30:44.087Z,4.55
2023-05-01T13:32:43.910Z,4.47
2023-05-01T13:34:39.868Z,4.10
2023-05-01T13:36:36.004Z,4.70
2023-05-01T13:38:43.874Z,4.72
2023-05-01T13:40:39.515Z,4.40
2023-05-01T13:42:41.289Z,4.35
2023-05-01T13:44:47.171Z,4.85
2023-05-01T13:46:45.549Z,5.00
2023-05-01T13:48:44.878Z,4.55
2023-05-01T13:50:43.392Z,3.80
2023-05-01T13:52:44.907Z,4.93
2023-05-01T13:54:43.518Z,4.15
2023-05-01T13:56:39.317Z,4.88
2023-05-01T13:58:37.632Z,5.55
2023-05-01T14:00:32.736Z,6.03
2023-05-01T14:02:30.169Z,4.57
2023-05-01T14:04:25.485Z,4.22
2023-05-01T14:06:24.473Z,4.28
2023-05-01T14:08:23.805Z,4.03
2023-05-01T14:10:19.666Z,4.20
2023-05-01T14:12:17.758Z,4.53
2023-05-01T14:14:25.627Z,4.28
2023-05-01T14:16:34.131Z,5.68
2023-05-01T14:19:00.902Z,4.30
2023-05-01T14:21:08.302Z,4.45
2023-05-01T14:23:04.128Z,4.38
2023-05-01T14:25:02.098Z,4.38
2023-05-01T14:26:57.913Z,4.75
2023-05-01T14:28:53.060Z,4.78
2023-05-01T14:30:52.763Z,4.10
2023-05-01T14:32:47.961Z,4.55
2023-05-01T14:34:45.479Z,5.05
2023-05-01T14:36:43.578Z,4.43
2023-05-01T14:38:39.453Z,4.45
2023-05-01T14:40:38.969Z,4.93
2023-05-01T14:42:34.397Z,4.55
2023-05-01T14:44:31.122Z,4.90
2023-05-01T14:46:34.172Z,4.65
2023-05-01T14:48:33.218Z,4.18
2023-05-01T14:50:29.349Z,4.35
2023-05-01T14:52:24.787Z,4.43
2023-05-01T14:54:19.973Z,4.40
2023-05-01T14:56:17.681Z,4.15
2023-05-01T14:58:12.773Z,4.07
2023-05-01T15:00:09.533Z,4.63
2023-05-01T15:02:07.471Z,5.07
2023-05-01T15:04:04.042Z,4.20
2023-05-01T15:05:59.780Z,4.18
2023-05-01T15:07:56.895Z,4.35
2023-05-01T15:09:51.971Z,3.80
2023-05-01T15:11:47.399Z,4.55
2023-05-01T15:13:44.390Z,4.43
2023-05-01T15:15:39.868Z,3.90
2023-05-01T15:17:37.682Z,4.22
2023-05-01T15:19:33.112Z,4.18
2023-05-01T15:21:28.260Z,3.90
2023-05-01T15:23:25.207Z,4.40
2023-05-01T15:25:20.487Z,4.28
2023-05-01T15:27:17.848Z,4.90
2023-05-01T15:29:12.901Z,4.15
2023-05-01T15:31:08.782Z,4.47
2023-05-01T15:33:07.334Z,4.72
2023-05-01T15:35:02.767Z,4.30
2023-05-01T15:36:57.935Z,4.30
2023-05-01T15:38:53.282Z,5.32
2023-05-01T15:40:50.096Z,13.55
2023-05-01T15:42:45.627Z,18.23
2023-05-01T15:44:40.812Z,4.20
2023-05-01T15:46:36.631Z,4.75
2023-05-01T15:48:34.495Z,4.20
2023-05-01T15:50:34.202Z,5.05
2023-05-01T15:52:33.006Z,5.00
2023-05-01T15:54:29.390Z,4.43
2023-05-01T15:56:26.326Z,4.72
2023-05-01T15:58:27.575Z,4.80
2023-05-01T16:00:25.928Z,4.40
2023-05-01T16:02:22.152Z,4.78
2023-05-01T16:04:22.017Z,4.97
2023-05-01T16:06:18.559Z,4.70
2023-05-01T16:08:19.866Z,5.88
2023-05-01T16:10:25.654Z,4.80
2023-05-01T16:12:20.730Z,4.90
2023-05-01T16:14:18.440Z,6.60
2023-05-01T16:16:14.819Z,5.53
2023-05-01T16:18:11.381Z,4.82
2023-05-01T16:20:14.693Z,4.70
2023-05-01T16:22:12.660Z,4.75
2023-05-01T16:24:09.918Z,5.75
2023-05-01T16:26:06.162Z,4.85
2023-05-01T16:28:04.254Z,5.30
2023-05-01T16:33:18.577Z,4.90
2023-05-01T16:35:52.617Z,5.15
2023-05-01T16:37:47.944Z,5.25
2023-05-01T16:39:43.549Z,4.95
2023-05-01T16:41:47.394Z,5.07
2023-05-01T16:43:42.897Z,5.13
2023-05-01T16:45:39.858Z,4.75
2023-05-01T16:47:36.399Z,4.93
2023-05-01T16:49:31.430Z,5.50
2023-05-01T16:51:29.615Z,4.93
2023-05-01T16:53:24.637Z,4.97
2023-05-01T16:55:20.576Z,5.10
2023-05-01T16:57:27.848Z,5.15
2023-05-01T17:13:58.313Z,5.30
2023-05-01T17:15:57.083Z,4.93
2023-05-01T17:17:52.410Z,11.20
2023-05-01T17:19:48.347Z,5.68
2023-05-01T17:21:53.937Z,5.22
2023-05-01T17:24:01.955Z,4.85
2023-05-01T17:29:40.454Z,6.63
2023-05-01T17:31:38.442Z,4.70
2023-05-01T17:33:42.467Z,5.28
2023-05-01T17:35:39.471Z,5.78
2023-05-01T17:37:36.108Z,8.40
2023-05-01T17:39:32.639Z,9.80
2023-05-01T17:41:32.143Z,7.38
2023-05-01T17:43:29.877Z,5.57
2023-05-01T17:45:27.927Z,5.70
2023-05-01T17:47:29.432Z,6.82
2023-05-01T17:49:46.524Z,8.95
2023-05-01T17:51:58.689Z,11.68
2023-05-01T17:53:57.619Z,16.45
2023-05-01T17:55:54.011Z,10.95
2023-05-01T17:57:50.566Z,6.60
2023-05-01T17:59:47.212Z,22.13
2023-05-01T18:01:45.127Z,14.13
2023-05-01T18:03:40.740Z,11.80
2023-05-01T18:05:36.192Z,7.47
2023-05-01T18:07:33.677Z,7.10
2023-05-01T18:09:33.702Z,6.45
2023-05-01T18:11:29.128Z,6.55
2023-05-01T18:13:28.102Z,5.68
2023-05-01T18:15:23.604Z,5.75
2023-05-01T18:17:21.511Z,6.57
2023-05-01T18:19:16.998Z,6.10
2023-05-01T18:21:12.047Z,6.18
2023-05-01T18:23:08.009Z,5.85
2023-05-01T18:25:03.311Z,6.22
2023-05-01T18:26:59.692Z,5.90
2023-05-01T18:28:54.800Z,7.00
2023-05-01T18:30:50.383Z,7.65
2023-05-01T18:32:49.278Z,16.90
2023-05-01T18:34:45.560Z,11.05
2023-05-01T18:36:40.628Z,8.70
2023-05-01T18:38:39.396Z,7.82
2023-05-01T18:40:34.663Z,6.95
2023-05-01T18:42:30.042Z,6.93
2023-05-01T18:44:25.156Z,6.57
2023-05-01T18:46:20.749Z,5.82
2023-05-01T18:48:18.353Z,6.80
2023-05-01T18:50:14.051Z,15.98
2023-05-01T18:52:09.131Z,24.52
2023-05-01T18:54:05.715Z,15.77
2023-05-01T18:56:00.784Z,11.25
2023-05-01T18:57:56.657Z,8.38
2023-05-01T18:59:51.699Z,9.82
2023-05-01T19:01:48.024Z,8.23
2023-05-01T19:03:45.843Z,8.18
2023-05-01T19:05:42.074Z,7.07
2023-05-01T19:07:37.573Z,7.05
2023-05-01T19:09:33.057Z,8.55
2023-05-01T19:11:31.917Z,7.53
2023-05-01T19:13:27.458Z,7.75
2023-05-01T19:15:22.602Z,6.50
2023-05-01T19:17:17.923Z,6.28
2023-05-01T19:19:15.594Z,5.57
2023-05-01T19:21:11.240Z,6.57
2023-05-01T19:23:06.367Z,8.13
2023-05-01T19:25:02.333Z,20.65
2023-05-01T19:26:57.440Z,9.35
2023-05-01T19:28:52.838Z,7.75
2023-05-01T19:30:47.927Z,5.60
2023-05-01T19:32:43.440Z,6.13
2023-05-01T19:34:41.177Z,7.18
2023-05-01T19:36:36.576Z,6.28
2023-05-01T19:38:33.266Z,8.35
2023-05-01T19:40:28.902Z,8.35
2023-05-01T19:42:24.189Z,8.65
2023-05-01T19:44:19.622Z,7.32
2023-05-01T19:46:14.696Z,6.75
2023-05-01T19:48:10.233Z,7.32
2023-05-01T19:50:08.878Z,10.30
2023-05-01T19:52:04.239Z,8.90
2023-05-01T19:54:01.531Z,7.78
2023-05-01T19:55:57.192Z,8.02
2023-05-01T19:57:52.811Z,7.75
2023-05-01T19:59:48.602Z,8.38
2023-05-01T20:01:45.028Z,7.80
2023-05-01T20:03:40.871Z,7.97
2023-05-01T20:05:39.230Z,8.60
2023-05-01T20:07:35.135Z,8.98
2023-05-01T20:21:08.169Z,16.90
2023-05-01T20:23:55.047Z,11.80
2023-05-01T20:56:39.279Z,9.85
2023-05-01T20:58:49.877Z,10.15
2023-05-01T21:00:49.046Z,10.07
2023-05-01T21:02:45.251Z,10.98
2023-05-01T21:04:41.654Z,12.60
2023-05-01T21:06:40.961Z,12.23
2023-05-01T21:08:37.252Z,12.32
2023-05-01T21:10:35.054Z,12.30
2023-05-01T21:12:32.693Z,12.20
2023-05-01T21:14:27.959Z,12.82
2023-05-01T21:16:23.625Z,12.63
2023-05-01T21:18:20.557Z,11.93
2023-05-01T21:20:19.206Z,11.90
2023-05-01T21:22:19.042Z,13.23
2023-05-01T21:24:21.987Z,13.45
2023-05-01T21:26:22.304Z,12.50
2023-05-01T21:28:18.085Z,12.70
2023-05-01T21:30:17.923Z,13.18
2023-05-01T21:32:13.000Z,13.25
2023-05-01T21:34:09.697Z,13.20
2023-05-01T21:36:05.035Z,13.85
2023-05-01T21:38:01.036Z,13.65
2023-05-01T21:43:08.937Z,13.02
2023-05-01T21:45:50.250Z,13.07
2023-05-01T22:14:47.057Z,11.93
2023-05-01T22:20:52.591Z,12.85
2023-05-01T22:23:53.767Z,12.82
2023-05-01T22:29:01.272Z,12.40
2023-05-01T22:33:40.752Z,11.27
2023-05-01T22:36:14.133Z,11.38
2023-05-01T22:41:25.747Z,10.93
2023-05-01T22:44:30.377Z,11.30
2023-05-01T23:10:47.763Z,8.38
2023-05-01T23:16:10.120Z,8.18
2023-05-01T23:18:30.676Z,7.85
2023-05-01T23:20:53.842Z,7.85
2023-05-01T23:23:48.122Z,7.32
2023-05-01T23:26:33.256Z,7.63
2023-05-01T23:28:49.793Z,7.85
2023-05-01T23:31:28.932Z,7.50
2023-05-01T23:37:34.469Z,7.60
2023-05-01T23:39:57.064Z,7.15
2023-05-01T23:43:28.770Z,7.80
2023-05-01T23:58:30.013Z,6.25
